createdAt,value
2022-08-23T00:00:35.879Z,87.63
2022-08-23T00:01:35.859Z,87.74
2022-08-23T00:02:35.892Z,87.63
2022-08-23T00:03:35.841Z,87.43
2022-08-23T00:04:35.806Z,87.74
2022-08-23T00:05:35.811Z,88.34
2022-08-23T00:06:35.699Z,88.24
2022-08-23T00:07:38.413Z,89.05
2022-08-23T00:08:35.664Z,88.85
2022-08-23T00:09:35.641Z,89.05
2022-08-23T00:10:35.593Z,88.85
2022-08-23T00:11:35.640Z,88.54
2022-08-23T00:12:35.632Z,88.45
2022-08-23T00:13:47.854Z,88.75
2022-08-23T00:14:35.829Z,88.54
2022-08-23T00:15:35.454Z,88.45
2022-08-23T00:16:35.447Z,88.95
2022-08-23T00:17:35.451Z,88.95
2022-08-23T00:18:35.403Z,89.35
2022-08-23T00:19:35.362Z,88.85
2022-08-23T00:20:35.312Z,89.15
2022-08-23T00:21:35.279Z,89.05
2022-08-23T00:22:35.397Z,90.46
2022-08-23T00:23:35.288Z,90.06
2022-08-23T00:24:39.118Z,90.16
2022-08-23T00:25:35.189Z,90.06
2022-08-23T00:26:35.150Z,89.86
2022-08-23T00:27:35.155Z,90.56
2022-08-23T00:28:35.083Z,89.95
2022-08-23T00:29:35.121Z,90.16
2022-08-23T00:30:35.048Z,90.36
2022-08-23T00:31:35.089Z,90.26
2022-08-23T00:32:34.980Z,89.91
2022-08-23T00:33:34.943Z,89.81
2022-08-23T00:34:34.948Z,90.06
2022-08-23T00:35:34.885Z,90.46
2022-08-23T00:36:34.852Z,90.16
2022-08-23T00:37:34.908Z,89.75
2022-08-23T00:38:35.198Z,90.26
2022-08-23T00:39:34.782Z,90.36
2022-08-23T00:40:34.746Z,90.56
2022-08-23T00:41:34.724Z,90.52
2022-08-23T00:42:44.338Z,90.66
2022-08-23T00:43:34.761Z,90.82
2022-08-23T00:44:34.637Z,90.82
2022-08-23T00:45:34.599Z,90.42
2022-08-23T00:46:34.625Z,90.62
2022-08-23T00:47:34.540Z,90.56
2022-08-23T00:48:34.515Z,90.62
2022-08-23T00:49:34.582Z,90.32
2022-08-23T00:50:34.497Z,91.06
2022-08-23T00:51:39.213Z,90.66
2022-08-23T00:52:34.427Z,90.66
2022-08-23T00:53:34.374Z,91.57
2022-08-23T00:54:34.348Z,91.22
2022-08-23T00:55:34.408Z,91.33
2022-08-23T00:56:34.304Z,91.57
2022-08-23T00:57:34.296Z,91.57
2022-08-23T00:58:34.222Z,91.27
2022-08-23T00:59:34.209Z,91.47
2022-08-23T01:00:34.175Z,91.37
2022-08-23T01:01:34.242Z,90.66
2022-08-23T01:02:34.130Z,90.56
2022-08-23T01:03:38.702Z,90.16
2022-08-23T01:04:34.066Z,90.46
2022-08-23T01:05:34.042Z,90.36
2022-08-23T01:06:34.118Z,90.66
2022-08-23T01:07:33.998Z,90.66
2022-08-23T01:08:33.954Z,90.36
2022-08-23T01:09:33.926Z,90.56
2022-08-23T01:10:33.887Z,90.50
2022-08-23T01:11:33.854Z,90.50
2022-08-23T01:12:33.926Z,90.66
2022-08-23T01:13:33.811Z,90.81
2022-08-23T01:14:33.770Z,91.51
2022-08-23T01:15:33.754Z,92.22
2022-08-23T01:16:33.732Z,92.12
2022-08-23T01:17:33.688Z,92.12
2022-08-23T01:18:33.727Z,92.02
2022-08-23T01:19:33.631Z,92.12
2022-08-23T01:20:33.603Z,91.91
2022-08-23T01:21:33.573Z,92.22
2022-08-23T01:22:33.574Z,93.02
2022-08-23T01:23:33.520Z,92.22
2022-08-23T01:25:06.313Z,92.22
2022-08-23T01:25:33.483Z,92.52
2022-08-23T01:26:33.427Z,92.32
2022-08-23T01:27:33.397Z,92.32
2022-08-23T01:28:33.405Z,92.22
2022-08-23T01:29:33.427Z,92.22
2022-08-23T01:30:33.377Z,92.42
2022-08-23T01:31:33.289Z,92.77
2022-08-23T01:32:33.274Z,92.32
2022-08-23T01:33:33.225Z,92.52
2022-08-23T01:34:35.195Z,92.42
2022-08-23T01:35:33.291Z,92.72
2022-08-23T01:36:33.139Z,92.62
2022-08-23T01:37:33.115Z,93.93
2022-08-23T01:38:33.085Z,93.93
2022-08-23T01:39:33.060Z,93.73
2022-08-23T01:40:37.856Z,93.73
2022-08-23T01:41:33.099Z,94.24
2022-08-23T01:42:32.973Z,93.73
2022-08-23T01:43:32.938Z,94.24
2022-08-23T01:44:32.956Z,94.39
2022-08-23T01:45:32.901Z,94.64
2022-08-23T01:46:32.860Z,94.29
2022-08-23T01:47:32.889Z,93.99
2022-08-23T01:48:32.800Z,94.19
2022-08-23T01:49:32.804Z,94.59
2022-08-23T01:50:32.823Z,94.70
2022-08-23T01:51:32.763Z,95.00
2022-08-23T01:52:32.744Z,94.49
2022-08-23T01:53:32.710Z,94.09
2022-08-23T01:54:32.654Z,94.19
2022-08-23T01:55:32.604Z,94.09
2022-08-23T01:56:38.573Z,93.89
2022-08-23T01:57:32.539Z,94.19
2022-08-23T01:58:32.591Z,93.79
2022-08-23T01:59:32.638Z,93.79
2022-08-23T02:00:32.450Z,93.79
2022-08-23T02:01:32.467Z,94.09
2022-08-23T02:02:32.419Z,94.19
2022-08-23T02:03:32.433Z,93.89
2022-08-23T02:04:32.374Z,94.09
2022-08-23T02:05:32.378Z,94.09
2022-08-23T02:06:32.282Z,93.79
2022-08-23T02:07:32.266Z,94.09
2022-08-23T02:08:32.241Z,93.65
2022-08-23T02:09:32.292Z,93.74
2022-08-23T02:10:32.181Z,94.19
2022-08-23T02:11:32.184Z,94.09
2022-08-23T02:12:32.106Z,93.69
2022-08-23T02:13:32.083Z,93.74
2022-08-23T02:14:32.137Z,93.95
2022-08-23T02:15:32.031Z,93.74
2022-08-23T02:16:32.008Z,94.15
2022-08-23T02:17:32.000Z,94.05
2022-08-23T02:18:31.956Z,93.65
2022-08-23T02:19:31.911Z,93.95
2022-08-23T02:20:31.972Z,93.95
2022-08-23T02:21:31.860Z,93.95
2022-08-23T02:22:31.824Z,93.95
2022-08-23T02:23:31.808Z,93.65
2022-08-23T02:24:31.947Z,93.85
2022-08-23T02:25:31.742Z,94.15
2022-08-23T02:26:31.767Z,94.15
2022-08-23T02:27:31.685Z,94.05
2022-08-23T02:28:31.648Z,93.95
2022-08-23T02:29:31.631Z,94.05
2022-08-23T02:30:31.604Z,93.85
2022-08-23T02:31:31.581Z,93.95
2022-08-23T02:32:31.605Z,94.25
2022-08-23T02:33:31.512Z,94.25
2022-08-23T02:34:31.478Z,94.15
2022-08-23T02:35:31.450Z,94.25
2022-08-23T02:36:31.420Z,94.15
2022-08-23T02:37:31.384Z,93.74
2022-08-23T02:38:31.419Z,93.65
2022-08-23T02:39:31.330Z,93.95
2022-08-23T02:40:31.307Z,93.14
2022-08-23T02:41:31.318Z,93.74
2022-08-23T02:42:31.245Z,93.85
2022-08-23T02:43:31.302Z,93.44
2022-08-23T02:44:31.209Z,93.85
2022-08-23T02:45:31.168Z,93.65
2022-08-23T02:46:31.133Z,93.44
2022-08-23T02:47:31.113Z,93.85
2022-08-23T02:48:31.071Z,93.24
2022-08-23T02:49:31.105Z,93.14
2022-08-23T02:50:31.079Z,93.54
2022-08-23T02:51:31.000Z,92.94
2022-08-23T02:52:30.986Z,92.83
2022-08-23T02:53:30.923Z,93.65
2022-08-23T02:54:30.900Z,93.34
2022-08-23T02:55:30.966Z,93.44
2022-08-23T02:56:30.875Z,93.85
2022-08-23T02:57:31.446Z,93.54
2022-08-23T02:58:30.793Z,93.04
2022-08-23T02:59:30.756Z,92.94
2022-08-23T03:00:30.756Z,93.14
2022-08-23T03:01:30.764Z,93.24
2022-08-23T03:02:30.724Z,93.24
2022-08-23T03:03:30.646Z,93.04
2022-08-23T03:04:30.612Z,92.94
2022-08-23T03:05:30.586Z,92.83
2022-08-23T03:06:30.557Z,93.14
2022-08-23T03:07:30.598Z,92.83
2022-08-23T03:08:30.490Z,92.94
2022-08-23T03:09:30.475Z,93.24
2022-08-23T03:10:30.455Z,93.24
2022-08-23T03:11:30.425Z,93.24
2022-08-23T03:12:30.377Z,93.24
2022-08-23T03:13:30.460Z,93.34
2022-08-23T03:14:30.329Z,92.94
2022-08-23T03:15:30.302Z,93.34
2022-08-23T03:16:30.331Z,93.34
2022-08-23T03:17:30.260Z,93.44
2022-08-23T03:18:30.222Z,93.14
2022-08-23T03:19:30.263Z,93.24
2022-08-23T03:20:30.143Z,93.04
2022-08-23T03:21:30.120Z,93.14
2022-08-23T03:22:30.091Z,92.43
2022-08-23T03:23:30.079Z,92.74
2022-08-23T03:24:30.114Z,93.14
2022-08-23T03:25:30.007Z,92.54
2022-08-23T03:26:30.028Z,92.33
2022-08-23T03:27:29.965Z,92.13
2022-08-23T03:28:29.943Z,92.23
2022-08-23T03:29:29.898Z,91.93
2022-08-23T03:30:29.951Z,92.63
2022-08-23T03:31:31.247Z,92.13
2022-08-23T03:32:29.818Z,92.33
2022-08-23T03:33:29.780Z,92.33
2022-08-23T03:34:29.763Z,92.13
2022-08-23T03:35:29.719Z,92.43
2022-08-23T03:36:29.938Z,92.27
2022-08-23T03:37:29.666Z,92.23
2022-08-23T03:38:29.656Z,92.13
2022-08-23T03:39:29.609Z,92.38
2022-08-23T03:40:29.574Z,92.43
2022-08-23T03:41:29.550Z,92.13
2022-08-23T03:42:31.018Z,92.27
2022-08-23T03:43:29.503Z,92.33
2022-08-23T03:44:29.472Z,92.23
2022-08-23T03:45:29.470Z,92.27
2022-08-23T03:46:33.761Z,92.54
2022-08-23T03:47:29.387Z,92.63
2022-08-23T03:48:29.440Z,92.74
2022-08-23T03:49:29.313Z,92.43
2022-08-23T03:50:29.322Z,92.88
2022-08-23T03:51:29.273Z,92.54
2022-08-23T03:52:29.228Z,92.47
2022-08-23T03:53:31.402Z,92.58
2022-08-23T03:54:29.249Z,92.58
2022-08-23T03:55:29.171Z,92.78
2022-08-23T03:56:29.122Z,92.58
2022-08-23T03:57:29.104Z,92.27
2022-08-23T03:58:29.067Z,92.27
2022-08-23T03:59:29.105Z,92.47
2022-08-23T04:00:29.006Z,92.18
2022-08-23T04:01:29.135Z,92.38
2022-08-23T04:02:28.980Z,92.27
2022-08-23T04:03:28.913Z,92.18
2022-08-23T04:04:29.166Z,92.47
2022-08-23T04:05:28.859Z,92.47
2022-08-23T04:06:28.849Z,92.58
2022-08-23T04:07:28.796Z,92.23
2022-08-23T04:08:33.702Z,92.47
2022-08-23T04:09:28.756Z,92.38
2022-08-23T04:10:28.774Z,92.27
2022-08-23T04:11:28.688Z,92.38
2022-08-23T04:12:28.669Z,92.27
2022-08-23T04:13:28.652Z,92.58
2022-08-23T04:14:28.646Z,92.68
2022-08-23T04:15:28.649Z,92.98
2022-08-23T04:16:28.608Z,93.49
2022-08-23T04:17:32.096Z,93.29
2022-08-23T04:18:28.483Z,93.38
2022-08-23T04:19:28.456Z,93.08
2022-08-23T04:20:28.426Z,93.43
2022-08-23T04:21:28.478Z,93.93
2022-08-23T04:22:28.366Z,94.34
2022-08-23T04:23:28.337Z,93.89
2022-08-23T04:24:28.337Z,94.04
2022-08-23T04:25:34.244Z,94.04
2022-08-23T04:26:30.265Z,93.93
2022-08-23T04:27:28.271Z,94.34
2022-08-23T04:28:28.190Z,94.84
2022-08-23T04:29:33.927Z,94.24
2022-08-23T04:30:28.129Z,94.64
2022-08-23T04:31:28.118Z,94.64
2022-08-23T04:32:28.696Z,94.54
2022-08-23T04:33:28.076Z,94.54
2022-08-23T04:34:28.777Z,94.64
2022-08-23T04:35:27.982Z,95.04
2022-08-23T04:36:27.982Z,95.39
2022-08-23T04:37:28.170Z,95.59
2022-08-23T04:38:27.904Z,95.59
2022-08-23T04:39:27.874Z,94.74
2022-08-23T04:40:27.987Z,95.45
2022-08-23T04:41:27.805Z,95.19
2022-08-23T04:42:27.860Z,95.04
2022-08-23T04:43:28.156Z,95.19
2022-08-23T04:44:27.749Z,95.14
2022-08-23T04:45:27.693Z,94.94
2022-08-23T04:46:27.682Z,94.84
2022-08-23T04:47:27.660Z,94.54
2022-08-23T04:48:27.611Z,95.14
2022-08-23T04:49:27.644Z,94.94
2022-08-23T04:50:27.671Z,94.84
2022-08-23T04:51:28.919Z,94.54
2022-08-23T04:52:27.482Z,94.74
2022-08-23T04:53:27.454Z,94.84
2022-08-23T04:54:27.577Z,94.94
2022-08-23T04:55:27.443Z,94.94
2022-08-23T04:56:28.013Z,94.24
2022-08-23T04:57:27.367Z,94.13
2022-08-23T04:58:27.326Z,93.84
2022-08-23T04:59:27.936Z,94.24
2022-08-23T05:00:27.439Z,94.24
2022-08-23T05:01:27.336Z,94.24
2022-08-23T05:02:27.218Z,93.93
2022-08-23T05:03:27.259Z,94.04
2022-08-23T05:04:27.131Z,94.34
2022-08-23T05:05:27.122Z,94.34
2022-08-23T05:06:27.351Z,94.34
2022-08-23T05:07:30.982Z,94.24
2022-08-23T05:08:27.963Z,94.34
2022-08-23T05:09:27.005Z,94.34
2022-08-23T05:10:26.960Z,94.34
2022-08-23T05:11:26.939Z,93.93
2022-08-23T05:12:26.998Z,94.24
2022-08-23T05:13:26.947Z,94.04
2022-08-23T05:14:26.854Z,93.89
2022-08-23T05:15:26.873Z,94.19
2022-08-23T05:16:26.812Z,94.19
2022-08-23T05:17:26.862Z,93.79
2022-08-23T05:18:26.749Z,93.18
2022-08-23T05:19:26.721Z,93.38
2022-08-23T05:20:26.694Z,93.38
2022-08-23T05:21:26.651Z,93.29
2022-08-23T05:22:26.618Z,92.58
2022-08-23T05:23:31.624Z,92.68
2022-08-23T05:24:26.567Z,92.18
2022-08-23T05:25:26.533Z,92.13
2022-08-23T05:26:26.498Z,92.33
2022-08-23T05:27:26.461Z,92.23
2022-08-23T05:28:26.511Z,92.03
2022-08-23T05:29:26.435Z,91.93
2022-08-23T05:30:26.381Z,91.93
2022-08-23T05:31:26.355Z,91.42
2022-08-23T05:32:28.456Z,91.33
2022-08-23T05:33:26.289Z,91.53
2022-08-23T05:34:26.320Z,91.63
2022-08-23T05:35:26.232Z,91.28
2022-08-23T05:36:26.208Z,91.18
2022-08-23T05:37:26.173Z,91.58
2022-08-23T05:38:26.177Z,91.38
2022-08-23T05:39:32.837Z,90.78
2022-08-23T05:40:26.085Z,90.68
2022-08-23T05:41:38.186Z,90.48
2022-08-23T05:42:26.033Z,90.48
2022-08-23T05:43:26.001Z,90.33
2022-08-23T05:44:26.047Z,90.23
2022-08-23T05:45:25.945Z,90.53
2022-08-23T05:46:28.300Z,90.53
2022-08-23T05:47:25.883Z,90.33
2022-08-23T05:48:25.861Z,90.64
2022-08-23T05:49:25.920Z,90.53
2022-08-23T05:50:26.040Z,90.94
2022-08-23T05:51:25.771Z,90.73
2022-08-23T05:52:25.816Z,90.53
2022-08-23T05:53:25.713Z,90.73
2022-08-23T05:54:25.688Z,90.64
2022-08-23T05:55:34.669Z,90.64
2022-08-23T05:56:25.777Z,90.33
2022-08-23T05:57:25.597Z,90.64
2022-08-23T05:58:25.578Z,90.64
2022-08-23T05:59:25.547Z,90.49
2022-08-23T06:00:37.218Z,90.53
2022-08-23T06:01:25.523Z,90.73
2022-08-23T06:02:25.584Z,90.59
2022-08-23T06:03:25.431Z,90.73
2022-08-23T06:04:25.404Z,90.53
2022-08-23T06:05:25.378Z,90.53
2022-08-23T06:06:37.234Z,90.53
2022-08-23T06:07:25.320Z,91.04
2022-08-23T06:08:25.390Z,91.14
2022-08-23T06:09:25.262Z,91.14
2022-08-23T06:10:25.229Z,91.14
2022-08-23T06:11:25.208Z,91.24
2022-08-23T06:12:25.174Z,91.19
2022-08-23T06:13:25.144Z,90.99
2022-08-23T06:14:25.342Z,91.30
2022-08-23T06:15:25.087Z,90.49
2022-08-23T06:16:25.111Z,90.59
2022-08-23T06:17:25.032Z,90.69
2022-08-23T06:18:25.003Z,90.39
2022-08-23T06:19:25.068Z,90.05
2022-08-23T06:20:24.987Z,89.54
2022-08-23T06:21:24.927Z,90.11
2022-08-23T06:22:24.892Z,89.70
2022-08-23T06:23:24.859Z,89.90
2022-08-23T06:24:24.838Z,89.40
2022-08-23T06:25:24.878Z,90.11
2022-08-23T06:26:24.777Z,89.15
2022-08-23T06:27:24.750Z,89.56
2022-08-23T06:28:25.627Z,89.06
2022-08-23T06:29:24.743Z,88.91
2022-08-23T06:30:24.881Z,88.31
2022-08-23T06:31:24.722Z,88.21
2022-08-23T06:32:24.645Z,88.41
2022-08-23T06:33:24.625Z,88.55
2022-08-23T06:34:24.563Z,88.85
2022-08-23T06:35:39.015Z,88.51
2022-08-23T06:36:24.564Z,88.21
2022-08-23T06:37:24.478Z,88.25
2022-08-23T06:38:24.453Z,88.51
2022-08-23T06:39:24.494Z,88.41
2022-08-23T06:40:24.511Z,87.71
2022-08-23T06:41:24.369Z,88.01
2022-08-23T06:42:39.364Z,88.01
2022-08-23T06:43:24.316Z,87.37
2022-08-23T06:44:24.286Z,87.16
2022-08-23T06:45:33.826Z,87.12
2022-08-23T06:46:24.317Z,86.52
2022-08-23T06:47:24.199Z,86.32
2022-08-23T06:48:24.176Z,86.52
2022-08-23T06:49:24.152Z,86.32
2022-08-23T06:50:24.128Z,86.32
2022-08-23T06:51:24.620Z,86.66
2022-08-23T06:52:24.071Z,87.52
2022-08-23T06:53:24.044Z,86.66
2022-08-23T06:54:24.017Z,87.37
2022-08-23T06:55:24.003Z,87.26
2022-08-23T06:56:24.088Z,87.32
2022-08-23T06:57:23.989Z,87.06
2022-08-23T06:58:23.911Z,87.32
2022-08-23T06:59:23.882Z,87.22
2022-08-23T07:00:24.454Z,86.62
2022-08-23T07:01:44.594Z,86.18
2022-08-23T07:02:24.142Z,86.08
2022-08-23T07:03:23.783Z,86.08
2022-08-23T07:04:23.752Z,86.52
2022-08-23T07:05:23.725Z,86.62
2022-08-23T07:06:23.697Z,86.92
2022-08-23T07:07:23.740Z,86.72
2022-08-23T07:08:23.909Z,86.42
2022-08-23T07:09:23.689Z,86.62
2022-08-23T07:10:23.589Z,86.82
2022-08-23T07:11:23.582Z,86.62
2022-08-23T07:12:23.537Z,86.72
2022-08-23T07:13:23.646Z,86.68
2022-08-23T07:14:23.483Z,86.38
2022-08-23T07:15:23.457Z,85.94
2022-08-23T07:16:23.487Z,85.53
2022-08-23T07:17:23.408Z,85.19
2022-08-23T07:18:23.381Z,84.74
2022-08-23T07:19:24.274Z,85.10
2022-08-23T07:20:23.331Z,84.09
2022-08-23T07:21:23.301Z,84.79
2022-08-23T07:22:23.275Z,84.53
2022-08-23T07:23:23.249Z,84.63
2022-08-23T07:24:23.226Z,85.13
2022-08-23T07:25:24.129Z,85.17
2022-08-23T07:26:23.199Z,85.68
2022-08-23T07:27:23.145Z,85.44
2022-08-23T07:28:23.127Z,85.24
2022-08-23T07:29:23.093Z,84.83
2022-08-23T07:30:23.077Z,84.53
2022-08-23T07:31:23.128Z,84.49
2022-08-23T07:32:23.022Z,84.39
2022-08-23T07:33:23.059Z,84.19
2022-08-23T07:34:22.998Z,84.19
2022-08-23T07:35:22.942Z,84.59
2022-08-23T07:36:22.913Z,84.09
2022-08-23T07:37:22.894Z,84.49
2022-08-23T07:38:22.859Z,84.49
2022-08-23T07:39:22.891Z,84.45
2022-08-23T07:40:22.852Z,84.19
2022-08-23T07:41:23.748Z,84.49
2022-08-23T07:42:24.236Z,84.69
2022-08-23T07:43:22.737Z,84.59
2022-08-23T07:44:27.065Z,84.59
2022-08-23T07:45:23.921Z,84.39
2022-08-23T07:46:22.675Z,84.89
2022-08-23T07:47:22.632Z,85.10
2022-08-23T07:48:43.195Z,84.79
2022-08-23T07:49:22.631Z,84.69
2022-08-23T07:50:22.613Z,84.69
2022-08-23T07:51:22.532Z,85.30
2022-08-23T07:52:22.501Z,85.44
2022-08-23T07:53:31.265Z,85.74
2022-08-23T07:54:22.738Z,85.63
2022-08-23T07:55:22.427Z,85.44
2022-08-23T07:56:22.397Z,85.19
2022-08-23T07:57:22.372Z,85.83
2022-08-23T07:58:22.345Z,85.83
2022-08-23T07:59:25.476Z,85.53
2022-08-23T08:00:22.383Z,85.94
2022-08-23T08:01:22.342Z,86.04
2022-08-23T08:02:22.244Z,85.80
2022-08-23T08:03:22.215Z,85.60
2022-08-23T08:04:22.190Z,85.69
2022-08-23T08:05:23.910Z,86.14
2022-08-23T08:06:22.144Z,86.14
2022-08-23T08:07:22.129Z,86.44
2022-08-23T08:08:22.086Z,86.84
2022-08-23T08:09:22.060Z,86.54
2022-08-23T08:10:22.070Z,86.44
2022-08-23T08:11:22.163Z,86.84
2022-08-23T08:12:22.043Z,86.33
2022-08-23T08:13:21.984Z,86.19
2022-08-23T08:14:21.928Z,86.19
2022-08-23T08:15:21.903Z,85.99
2022-08-23T08:16:21.992Z,85.85
2022-08-23T08:17:26.811Z,85.80
2022-08-23T08:18:21.840Z,85.46
2022-08-23T08:19:21.815Z,85.85
2022-08-23T08:20:21.851Z,86.05
2022-08-23T08:21:21.746Z,86.25
2022-08-23T08:22:21.729Z,86.05
2022-08-23T08:23:22.606Z,85.66
2022-08-23T08:24:21.675Z,85.31
2022-08-23T08:25:21.645Z,84.71
2022-08-23T08:26:21.616Z,84.71
2022-08-23T08:27:21.725Z,84.21
2022-08-23T08:28:21.568Z,83.97
2022-08-23T08:29:21.679Z,83.81
2022-08-23T08:30:21.508Z,84.01
2022-08-23T08:31:21.540Z,84.31
2022-08-23T08:32:21.456Z,84.51
2022-08-23T08:33:21.435Z,84.41
2022-08-23T08:34:21.412Z,84.11
2022-08-23T08:35:22.641Z,83.91
2022-08-23T08:36:22.508Z,82.57
2022-08-23T08:37:21.383Z,82.47
2022-08-23T08:38:21.340Z,82.47
2022-08-23T08:39:21.272Z,82.07
2022-08-23T08:40:21.393Z,82.67
2022-08-23T08:41:21.351Z,82.47
2022-08-23T08:42:21.235Z,82.63
2022-08-23T08:43:21.167Z,82.03
2022-08-23T08:44:21.366Z,82.43
2022-08-23T08:45:21.118Z,80.83
2022-08-23T08:46:21.197Z,78.93
2022-08-23T08:47:21.339Z,79.89
2022-08-23T08:48:21.038Z,80.73
2022-08-23T08:49:21.007Z,80.69
2022-08-23T08:50:21.015Z,80.89
2022-08-23T08:51:20.954Z,79.59
2022-08-23T08:52:20.930Z,79.59
2022-08-23T08:53:21.176Z,78.45
2022-08-23T08:54:20.873Z,78.25
2022-08-23T08:55:20.849Z,78.61
2022-08-23T08:56:20.823Z,78.02
2022-08-23T08:57:25.515Z,77.72
2022-08-23T08:58:20.768Z,77.68
2022-08-23T08:59:20.940Z,76.78
2022-08-23T09:00:20.718Z,74.08
2022-08-23T09:01:20.749Z,74.02
2022-08-23T09:02:31.734Z,74.98
2022-08-23T09:03:20.700Z,74.19
2022-08-23T09:04:20.621Z,73.32
2022-08-23T09:05:20.746Z,73.72
2022-08-23T09:06:20.556Z,74.42
2022-08-23T09:07:20.531Z,74.32
2022-08-23T09:08:20.514Z,74.52
2022-08-23T09:09:20.488Z,74.12
2022-08-23T09:10:20.460Z,74.22
2022-08-23T09:11:20.539Z,73.32
2022-08-23T09:12:20.408Z,73.09
2022-08-23T09:13:20.382Z,70.89
2022-08-23T09:14:20.357Z,71.29
2022-08-23T09:15:20.358Z,72.39
2022-08-23T09:16:20.485Z,72.99
2022-08-23T09:17:20.811Z,72.55
2022-08-23T09:18:20.251Z,72.55
2022-08-23T09:19:20.223Z,72.65
2022-08-23T09:20:20.198Z,71.06
2022-08-23T09:21:20.242Z,71.36
2022-08-23T09:22:20.268Z,71.12
2022-08-23T09:23:20.120Z,71.02
2022-08-23T09:24:20.099Z,70.83
2022-08-23T09:25:20.069Z,70.49
2022-08-23T09:26:20.051Z,69.29
2022-08-23T09:27:20.052Z,69.49
2022-08-23T09:28:20.201Z,69.20
2022-08-23T09:29:19.969Z,69.86
2022-08-23T09:30:19.940Z,69.26
2022-08-23T09:31:19.980Z,68.76
2022-08-23T09:32:19.893Z,68.86
2022-08-23T09:33:19.925Z,68.60
2022-08-23T09:34:19.919Z,68.79
2022-08-23T09:35:19.845Z,69.16
2022-08-23T09:36:19.821Z,69.16
2022-08-23T09:37:19.776Z,68.76
2022-08-23T09:38:19.753Z,68.37
2022-08-23T09:39:19.735Z,68.49
2022-08-23T09:40:20.520Z,68.40
2022-08-23T09:41:19.692Z,68.49
2022-08-23T09:42:20.663Z,68.90
2022-08-23T09:43:19.666Z,68.99
2022-08-23T09:44:21.515Z,69.09
2022-08-23T09:45:19.592Z,69.29
2022-08-23T09:46:19.722Z,68.16
2022-08-23T09:47:19.520Z,66.57
2022-08-23T09:48:19.492Z,66.47
2022-08-23T09:49:19.477Z,66.97
2022-08-23T09:50:19.467Z,67.57
2022-08-23T09:51:19.431Z,68.03
2022-08-23T09:52:22.151Z,68.63
2022-08-23T09:53:19.378Z,66.94
2022-08-23T09:54:19.497Z,66.83
2022-08-23T09:55:19.328Z,67.03
2022-08-23T09:56:19.299Z,67.13
2022-08-23T09:57:19.262Z,67.30
2022-08-23T09:58:19.487Z,67.70
2022-08-23T09:59:19.211Z,67.20
2022-08-23T10:00:19.217Z,66.67
2022-08-23T10:01:19.282Z,66.91
2022-08-23T10:02:19.150Z,66.87
2022-08-23T10:03:20.159Z,66.67
2022-08-23T10:04:19.129Z,65.78
2022-08-23T10:05:19.073Z,65.98
2022-08-23T10:06:19.103Z,65.98
2022-08-23T10:07:19.018Z,65.78
2022-08-23T10:08:19.004Z,66.64
2022-08-23T10:09:19.011Z,66.44
2022-08-23T10:10:18.946Z,65.72
2022-08-23T10:11:18.924Z,66.41
2022-08-23T10:12:19.018Z,66.54
2022-08-23T10:13:20.701Z,65.91
2022-08-23T10:14:19.139Z,66.31
2022-08-23T10:15:18.825Z,66.11
2022-08-23T10:16:18.833Z,65.68
2022-08-23T10:17:18.764Z,65.78
2022-08-23T10:18:18.770Z,65.68
2022-08-23T10:19:18.719Z,66.01
2022-08-23T10:20:18.764Z,65.72
2022-08-23T10:21:21.120Z,66.41
2022-08-23T10:22:18.677Z,65.05
2022-08-23T10:23:18.652Z,65.58
2022-08-23T10:24:18.593Z,66.67
2022-08-23T10:25:18.637Z,67.10
2022-08-23T10:26:18.657Z,66.67
2022-08-23T10:27:18.565Z,66.97
2022-08-23T10:28:18.504Z,66.57
2022-08-23T10:29:18.560Z,65.78
2022-08-23T10:30:18.468Z,66.14
2022-08-23T10:31:18.444Z,66.21
2022-08-23T10:32:18.727Z,66.41
2022-08-23T10:33:18.803Z,66.31
2022-08-23T10:34:18.384Z,66.41
2022-08-23T10:35:18.331Z,66.21
2022-08-23T10:36:18.383Z,66.81
2022-08-23T10:37:20.180Z,66.31
2022-08-23T10:38:18.422Z,64.72
2022-08-23T10:39:18.261Z,65.31
2022-08-23T10:40:18.285Z,65.31
2022-08-23T10:41:18.186Z,64.42
2022-08-23T10:42:19.049Z,64.42
2022-08-23T10:43:19.103Z,65.52
2022-08-23T10:44:18.339Z,65.22
2022-08-23T10:45:18.102Z,65.81
2022-08-23T10:46:18.376Z,65.39
2022-08-23T10:47:19.560Z,65.09
2022-08-23T10:48:18.057Z,64.98
2022-08-23T10:49:18.042Z,65.68
2022-08-23T10:50:18.028Z,65.68
2022-08-23T10:51:23.058Z,65.68
2022-08-23T10:52:17.978Z,65.68
2022-08-23T10:53:17.951Z,65.42
2022-08-23T10:54:18.552Z,65.52
2022-08-23T10:55:17.874Z,65.58
2022-08-23T10:56:17.893Z,66.28
2022-08-23T10:57:17.803Z,65.78
2022-08-23T10:58:17.919Z,65.06
2022-08-23T10:59:17.842Z,64.56
2022-08-23T11:00:17.734Z,64.39
2022-08-23T11:01:18.380Z,64.59
2022-08-23T11:02:18.762Z,64.46
2022-08-23T11:03:17.666Z,64.56
2022-08-23T11:04:17.680Z,64.29
2022-08-23T11:05:19.041Z,64.00
2022-08-23T11:06:17.606Z,64.09
2022-08-23T11:07:17.637Z,63.96
2022-08-23T11:08:17.605Z,63.17
2022-08-23T11:09:17.557Z,63.67
2022-08-23T11:10:18.200Z,62.07
2022-08-23T11:11:17.547Z,63.34
2022-08-23T11:12:17.536Z,62.84
2022-08-23T11:13:18.518Z,61.45
2022-08-23T11:14:17.394Z,60.66
2022-08-23T11:15:17.368Z,61.58
2022-08-23T11:16:17.539Z,61.75
2022-08-23T11:17:17.337Z,62.05
2022-08-23T11:18:17.339Z,62.05
2022-08-23T11:19:17.338Z,62.34
2022-08-23T11:20:17.253Z,62.05
2022-08-23T11:21:18.081Z,62.21
2022-08-23T11:22:17.236Z,61.42
2022-08-23T11:23:17.195Z,62.24
2022-08-23T11:24:17.708Z,62.02
2022-08-23T11:25:17.151Z,61.62
2022-08-23T11:26:17.137Z,60.40
2022-08-23T11:27:17.101Z,61.39
2022-08-23T11:28:17.095Z,60.60
2022-08-23T11:29:17.057Z,60.40
2022-08-23T11:30:17.273Z,61.29
2022-08-23T11:31:17.127Z,60.70
2022-08-23T11:32:17.187Z,60.80
2022-08-23T11:33:17.175Z,60.60
2022-08-23T11:34:17.049Z,60.60
2022-08-23T11:35:17.453Z,60.72
2022-08-23T11:36:16.966Z,60.63
2022-08-23T11:37:17.070Z,60.60
2022-08-23T11:38:17.272Z,60.00
2022-08-23T11:39:19.651Z,60.99
2022-08-23T11:40:18.436Z,59.88
2022-08-23T11:41:16.843Z,59.78
2022-08-23T11:42:16.831Z,59.84
2022-08-23T11:43:16.740Z,59.65
2022-08-23T11:44:16.730Z,60.07
2022-08-23T11:45:16.667Z,59.97
2022-08-23T11:46:16.693Z,59.97
2022-08-23T11:47:16.662Z,59.58
2022-08-23T11:48:17.514Z,58.61
2022-08-23T11:49:16.590Z,59.23
2022-08-23T11:50:16.564Z,58.72
2022-08-23T11:51:16.561Z,58.74
2022-08-23T11:52:16.537Z,58.91
2022-08-23T11:53:16.873Z,58.81
2022-08-23T11:54:18.860Z,57.89
2022-08-23T11:55:16.446Z,55.74
2022-08-23T11:56:16.419Z,54.97
2022-08-23T11:57:16.398Z,54.75
2022-08-23T11:58:17.663Z,56.63
2022-08-23T11:59:16.350Z,57.13
2022-08-23T12:00:17.694Z,56.51
2022-08-23T12:01:16.309Z,54.72
2022-08-23T12:02:16.383Z,54.82
2022-08-23T12:03:16.331Z,54.82
2022-08-23T12:04:16.233Z,54.13
2022-08-23T12:05:16.263Z,54.13
2022-08-23T12:06:16.191Z,54.02
2022-08-23T12:07:16.165Z,54.32
2022-08-23T12:08:16.135Z,53.03
2022-08-23T12:09:16.130Z,54.62
2022-08-23T12:10:16.238Z,54.82
2022-08-23T12:11:16.075Z,55.02
2022-08-23T12:12:16.047Z,54.62
2022-08-23T12:13:16.022Z,54.79
2022-08-23T12:14:16.013Z,54.89
2022-08-23T12:15:15.980Z,54.79
2022-08-23T12:16:17.549Z,54.57
2022-08-23T12:17:16.934Z,54.07
2022-08-23T12:18:18.331Z,54.49
2022-08-23T12:19:15.894Z,54.49
2022-08-23T12:20:16.893Z,53.20
2022-08-23T12:21:15.838Z,53.20
2022-08-23T12:22:15.865Z,52.94
2022-08-23T12:23:15.787Z,53.23
2022-08-23T12:24:15.769Z,52.37
2022-08-23T12:25:15.738Z,52.76
2022-08-23T12:26:15.731Z,52.96
2022-08-23T12:27:15.760Z,54.05
2022-08-23T12:28:15.676Z,53.73
2022-08-23T12:29:15.654Z,53.11
2022-08-23T12:30:15.625Z,54.99
2022-08-23T12:31:15.632Z,56.28
2022-08-23T12:32:16.341Z,56.57
2022-08-23T12:33:15.557Z,56.45
2022-08-23T12:34:15.534Z,56.52
2022-08-23T12:35:15.516Z,56.52
2022-08-23T12:36:16.709Z,54.96
2022-08-23T12:37:15.470Z,56.87
2022-08-23T12:38:15.502Z,57.17
2022-08-23T12:39:15.413Z,56.87
2022-08-23T12:40:15.445Z,56.77
2022-08-23T12:41:15.379Z,56.38
2022-08-23T12:42:15.357Z,56.30
2022-08-23T12:43:19.754Z,55.32
2022-08-23T12:44:15.367Z,56.93
2022-08-23T12:45:15.287Z,55.74
2022-08-23T12:46:15.323Z,55.47
2022-08-23T12:47:15.241Z,55.34
2022-08-23T12:48:15.231Z,56.76
2022-08-23T12:49:15.259Z,57.13
2022-08-23T12:50:15.278Z,56.23
2022-08-23T12:51:15.151Z,56.56
2022-08-23T12:52:15.119Z,56.93